Terminal Aerodrome Forecast
Issued by NWS Grand Forks, ND

Home | Current Version | Previous Version | Graphics & Text | Print | Product List | Glossary On
Versions: 1 2 3 4 5 6 7 8 9 10 11 12 13 14
000
FTUS43 KFGF 130500
TAFFAR
TAF
KFAR 130522Z 1306/1406 18008KT P6SM SKC
     FM131600 19017G23KT P6SM BKN200
     FM140200 23007KT P6SM BKN070=

USA.gov is the U.S. government's official web portal to all federal, state and local government web resources and services.